• Join FlightAware (Why Join?)
  • Login
  • US Flag 
04:56AM EDT


 

Airport Tracker/Info


-or-


 

Live Flight TrackerFlight Track Log ✈ N670MW ✈ 18-Sep-2013 ✈ KILG - KRRT

Flight Track Log - Related Links

Times and Time Zones

All times are in EDT time to prevent confusion due to time zone crossing. See the N670MW flight status page for this flight to view local times or setup timezone preferences in your user account.

Time Position Orientation Groundspeed Altitude Reporting Facility
EDT Latitude Longitude Course Direction KTS MPH feet Rate Location/Type
07:55AM 39.7000 -75.6000 322° Northwest 164 189 700  Level Philadelphia TRACON
07:56AM 39.7167 -75.6167 322° Northwest 215 247 1,600 2,520 Climbing Philadelphia TRACON
07:57AM 39.7667 -75.6833 314° West 252 290 4,500 2,280 Climbing Philadelphia TRACON
07:58AM 39.8333 -75.7000 349° North 268 308 6,200 2,220 Climbing Philadelphia TRACON
07:58AM 39.8736 -75.6803 21° North 273 314 8,100 2,340 Climbing New York Center
07:59AM 39.9564 -75.6456 18° North 308 354 10,000 960 Climbing New York Center
08:00AM 40.0303 -75.6261 11° North 365 420 10,100 960 Climbing New York Center
08:01AM 40.1297 -75.5925 14° North 351 404 12,000 1,920 Climbing New York Center
08:02AM 40.2239 -75.5800 North 344 396 14,000 1,980 Climbing New York Center
08:03AM 40.2956 -75.6639 318° Northwest 313 360 16,000 1,680 Climbing New York Center
08:04AM 40.3519 -75.7578 308° West 333 383 17,400 1,320 Climbing New York Center
08:05AM 40.4081 -75.8628 305° West 355 409 18,700 1,560 Climbing New York Center
08:06AM 40.4353 -76.0036 284° West 361 415 20,600 1,920 Climbing New York Center
08:07AM 40.4608 -76.1311 285° West 361 415 22,600 1,980 Climbing New York Center
08:08AM 40.4842 -76.2586 284° West 361 415 24,600 1,980 Climbing New York Center
08:09AM 40.5117 -76.3836 286° West 361 415 26,600 1,920 Climbing New York Center
08:10AM 40.5453 -76.5039 290° West 361 415 28,500 1,920 Climbing New York Center
08:11AM 40.5772 -76.6211 290° West 354 407 30,500 1,920 Climbing New York Center
08:12AM 40.6089 -76.7361 290° West 349 402 32,400 1,560 Climbing New York Center
08:13AM 40.6422 -76.8567 290° West 343 395 33,700 1,140 Climbing New York Center
08:14AM 40.6758 -76.9744 291° West 348 400 34,700 960 Climbing New York Center
08:15AM 40.7108 -77.1008 290° West 359 413 35,700 900 Climbing New York Center
08:16AM 40.7403 -77.2106 290° West 359 413 36,500 900 Climbing New York Center
08:17AM 40.7783 -77.3511 290° West 359 413 37,600 1,020 Climbing New York Center
08:18AM 40.8150 -77.4781 291° West 364 419 38,600 960 Climbing New York Center
08:19AM 40.8475 -77.6047 289° West 364 419 39,600 900 Climbing New York Center
08:20AM 40.8800 -77.7261 290° West 364 419 40,500 780 Climbing New York Center
08:22AM 40.9433 -77.9639 289° West 355 409 42,000 660 Climbing Cleveland Center
08:23AM 40.9758 -78.0847 290° West 352 405 42,500 480 Climbing Cleveland Center
08:24AM 41.0283 -78.1933 303° West 355 409 43,000 240 Climbing Cleveland Center
08:25AM 41.0922 -78.2981 309° West 358 412 43,000  Level Cleveland Center
08:26AM 41.1553 -78.4039 308° West 366 421 43,000  Level Cleveland Center
08:28AM 41.2353 -78.5344 309° West 380 437 43,000  Level Cleveland Center
08:29AM 41.3047 -78.6475 309° West 397 457 43,000  Level Cleveland Center
08:30AM 41.3717 -78.7608 308° West 391 450 43,000  Level Cleveland Center
08:31AM 41.4481 -78.8875 309° West 399 459 43,000  Level Cleveland Center
08:32AM 41.5164 -79.0031 308° West 401 461 43,000  Level Cleveland Center
08:33AM 41.5861 -79.1197 309° West 403 464 43,000  Level Cleveland Center
08:34AM 41.6633 -79.2483 309° West 407 468 43,000  Level Cleveland Center
08:35AM 41.7389 -79.3781 308° West 404 465 43,000  Level Cleveland Center
08:36AM 41.8078 -79.4939 309° West 401 461 43,000  Level Cleveland Center
08:37AM 41.8764 -79.6108 308° West 401 461 43,000  Level Cleveland Center
08:38AM 41.9442 -79.7294 308° West 401 461 43,000  Level Cleveland Center
08:39AM 42.0125 -79.8467 308° West 402 463 43,000  Level Cleveland Center
08:40AM 42.0808 -79.9642 308° West 401 461 43,000  Level Cleveland Center
08:41AM 42.1567 -80.0992 307° West 406 467 43,000  Level Cleveland Center
08:42AM 42.2250 -80.2186 308° West 402 463 43,000  Level Cleveland Center
08:43AM 42.2939 -80.3383 308° West 404 465 43,000  Level Cleveland Center
08:44AM 42.3719 -80.4781 307° West 400 460 43,000  Level Cleveland Center
08:45AM 42.4403 -80.5983 308° West 402 463 43,000  Level Cleveland Center
08:46AM 42.5089 -80.7211 307° West 404 465 43,000  Level Cleveland Center
08:47AM 42.5769 -80.8425 307° West 403 464 43,000  Level Cleveland Center
08:48AM 42.6450 -80.9625 308° West 399 459 43,000  Level Cleveland Center
08:49AM 42.7125 -81.0844 307° West 401 461 43,000  Level Cleveland Center
08:50AM 42.7908 -81.2272 307° West 401 461 43,000  Level Cleveland Center
08:51AM 42.8592 -81.3514 307° West 405 466 43,000  Level Cleveland Center
08:52AM 42.8933 -81.4117 308° West 403 464 43,000  Level Cleveland Center
08:53AM 42.9739 -81.5528 308° West 401 461 43,000 -60 Level Cleveland Center
08:54AM 43.0167 -81.6167 312° West 410 472 42,900  Descending Toronto Center
08:55AM 43.0833 -81.7500 304° West 400 460 43,000  Climbing Toronto Center
08:56AM 43.1500 -81.8667 308° West 400 460 43,000  Level Toronto Center
08:57AM 43.2000 -81.9833 300° West 400 460 43,000  Level Toronto Center
08:58AM 43.2667 -82.1333 301° West 400 460 43,000  Level Toronto Center
08:59AM 43.3333 -82.2500 308° West 390 449 43,000  Level Toronto Center
09:00AM 43.4000 -82.3667 308° West 390 449 43,000  Level Toronto Center
09:00AM 43.4364 -82.4189 314° West 389 448 43,000  Level Cleveland Center
09:01AM 43.5003 -82.5383 306° West 389 448 43,000  Level Cleveland Center
09:02AM 43.5619 -82.6569 306° West 384 442 43,000  Level Cleveland Center
09:03AM 43.6378 -82.8014 306° West 387 445 43,000  Level Cleveland Center
09:04AM 43.7006 -82.9217 306° West 387 445 43,000  Level Cleveland Center
09:05AM 43.7631 -83.0403 306° West 385 443 43,000  Level Cleveland Center
09:06AM 43.8261 -83.1658 305° West 394 453 43,000  Level Cleveland Center
09:07AM 43.8847 -83.2778 306° West 389 448 43,000  Level Minneapolis Center
09:08AM 43.9611 -83.4244 306° West 391 450 43,000  Level Minneapolis Center
09:09AM 44.0233 -83.5469 305° West 391 450 43,000  Level Minneapolis Center
09:10AM 44.0861 -83.6692 306° West 390 449 43,000  Level Minneapolis Center
09:12AM 44.1492 -83.7928 305° West 391 450 43,000  Level Minneapolis Center
09:13AM 44.2117 -83.9169 305° West 392 451 43,000  Level Minneapolis Center
09:14AM 44.2744 -84.0403 305° West 392 451 43,000  Level Minneapolis Center
09:15AM 44.3486 -84.1894 305° West 392 451 43,000  Level Minneapolis Center
09:16AM 44.4106 -84.3136 305° West 391 450 43,000  Level Minneapolis Center
09:17AM 44.4719 -84.4397 304° West 393 452 43,000  Level Minneapolis Center
09:18AM 44.5361 -84.5658 306° West 397 457 43,000  Level Minneapolis Center
09:19AM 44.5975 -84.6906 305° West 392 451 43,000  Level Minneapolis Center
09:20AM 44.6578 -84.8153 304° West 390 449 43,000  Level Minneapolis Center
09:21AM 44.7197 -84.9394 305° West 388 447 43,000  Level Minneapolis Center
09:22AM 44.7925 -85.0903 304° West 391 450 43,000  Level Minneapolis Center
09:23AM 44.8528 -85.2164 304° West 390 449 43,000  Level Minneapolis Center
09:24AM 44.9133 -85.3411 304° West 389 448 43,000  Level Minneapolis Center
09:25AM 44.9739 -85.4675 304° West 391 450 43,000  Level Minneapolis Center
09:26AM 45.0339 -85.5922 304° West 389 448 43,000  Level Minneapolis Center
09:27AM 45.0983 -85.7311 303° West 389 448 43,000  Level Minneapolis Center
09:28AM 45.1639 -85.8683 304° West 387 445 43,000  Level Minneapolis Center
09:29AM 45.2228 -85.9944 304° West 388 447 43,000  Level Minneapolis Center
09:30AM 45.2817 -86.1206 304° West 388 447 43,000  Level Minneapolis Center
09:31AM 45.3408 -86.2478 304° West 388 447 43,000  Level Minneapolis Center
09:32AM 45.4000 -86.3756 303° West 388 447 43,000  Level Minneapolis Center
09:33AM 45.4583 -86.5036 303° West 388 447 43,000  Level Minneapolis Center
09:34AM 45.5286 -86.6544 304° West 383 441 43,000  Level Minneapolis Center
09:35AM 45.5875 -86.7833 303° West 388 447 43,000  Level Minneapolis Center
09:36AM 45.6464 -86.9114 303° West 387 445 43,000  Level Minneapolis Center
09:37AM 45.7036 -87.0406 302° West 386 444 43,000  Level Minneapolis Center
09:38AM 45.7619 -87.1692 303° West 386 444 43,000  Level Minneapolis Center
09:39AM 45.8194 -87.2975 303° West 384 442 43,000  Level Minneapolis Center
09:40AM 45.8769 -87.4264 303° West 385 443 43,000  Level Minneapolis Center
09:41AM 45.9467 -87.5814 303° West 386 444 43,000  Level Minneapolis Center
09:42AM 46.0039 -87.7114 302° West 385 443 43,000  Level Minneapolis Center
09:43AM 46.0614 -87.8400 303° West 384 442 43,000  Level Minneapolis Center
09:44AM 46.1183 -87.9703 302° West 385 443 43,000  Level Minneapolis Center
09:45AM 46.1744 -88.0992 302° West 382 440 43,000  Level Minneapolis Center
09:46AM 46.2389 -88.2481 302° West 385 443 43,000  Level Minneapolis Center
09:48AM 46.2956 -88.3792 302° West 386 444 43,000  Level Minneapolis Center
09:49AM 46.3525 -88.5103 302° West 387 445 43,000  Level Minneapolis Center
09:50AM 46.4092 -88.6431 302° West 390 449 43,000  Level Minneapolis Center
09:51AM 46.4658 -88.7750 302° West 389 448 43,000  Level Minneapolis Center
09:52AM 46.5331 -88.9333 302° West 388 447 43,000  Level Minneapolis Center
09:53AM 46.5886 -89.0675 301° West 389 448 43,000  Level Minneapolis Center
09:54AM 46.6442 -89.2000 301° West 388 447 43,000  Level Minneapolis Center
09:55AM 46.6989 -89.3314 301° West 384 442 43,000  Level Minneapolis Center
09:56AM 46.7525 -89.4622 301° West 380 437 43,000  Level Minneapolis Center
09:57AM 46.8067 -89.5933 301° West 379 436 43,000  Level Minneapolis Center
09:58AM 46.8614 -89.7258 301° West 383 441 43,000  Level Minneapolis Center
09:59AM 46.9256 -89.8833 301° West 379 436 43,000  Level Minneapolis Center
10:00AM 46.9792 -90.0158 301° West 379 436 43,000  Level Minneapolis Center
10:01AM 47.0344 -90.1500 301° West 383 441 43,000  Level Minneapolis Center
10:02AM 47.0864 -90.2836 300° West 381 438 43,000  Level Minneapolis Center
10:03AM 47.1411 -90.4183 301° West 381 438 43,000  Level Minneapolis Center
10:04AM 47.1953 -90.5533 301° West 383 441 43,000  Level Minneapolis Center
10:05AM 47.2483 -90.6872 300° West 383 441 43,000  Level Minneapolis Center
10:06AM 47.3125 -90.8492 300° West 382 440 43,000  Level Minneapolis Center
10:07AM 47.3658 -90.9847 300° West 384 442 43,000  Level Minneapolis Center
10:08AM 47.4181 -91.1214 299° West 383 441 43,000  Level Minneapolis Center
10:09AM 47.4725 -91.2583 300° West 386 444 43,000  Level Minneapolis Center
10:10AM 47.5250 -91.3950 300° West 386 444 43,000  Level Minneapolis Center
10:11AM 47.5783 -91.5339 300° West 387 445 43,000  Level Minneapolis Center
10:12AM 47.6417 -91.7000 300° West 388 447 43,000  Level Minneapolis Center
10:13AM 47.6953 -91.8383 300° West 389 448 43,000  Level Minneapolis Center
10:14AM 47.7486 -91.9803 299° West 388 447 43,000  Level Minneapolis Center
10:15AM 47.7994 -92.1139 300° West 385 443 43,000  Level Minneapolis Center
10:16AM 47.8500 -92.2525 299° West 384 442 43,000  Level Minneapolis Center
10:17AM 47.9031 -92.3917 300° West 388 447 43,000  Level Minneapolis Center
10:18AM 47.9642 -92.5569 299° West 383 441 43,000  Level Minneapolis Center
10:19AM 48.0158 -92.6969 299° West 387 445 43,000  Level Minneapolis Center
10:21AM 48.0669 -92.8344 299° West 384 442 43,000  Level Minneapolis Center
10:22AM 48.1167 -92.9722 298° West 381 438 43,000  Level Minneapolis Center
10:23AM 48.1683 -93.1125 299° West 385 443 43,000  Level Minneapolis Center
10:24AM 48.2286 -93.2847 298° West 389 448 43,000 -60 Level Minneapolis Center
10:25AM 48.2794 -93.4267 298° West 388 447 42,900 -1,140 Descending Minneapolis Center
10:26AM 48.3281 -93.5642 298° West 380 437 40,700 -2,280 Descending Minneapolis Center
10:27AM 48.3769 -93.7039 298° West 380 437 38,200 -2,520 Descending Minneapolis Center
10:28AM 48.4267 -93.8453 298° West 383 441 35,600 -2,760 Descending Minneapolis Center
10:29AM 48.4764 -93.9858 298° West 382 440 32,500 -3,360 Descending Minneapolis Center
10:30AM 48.5381 -94.1622 298° West 393 452 28,700 -3,660 Descending Minneapolis Center
10:31AM 48.5889 -94.3108 297° West 400 460 25,000 -3,660 Descending Minneapolis Center
10:32AM 48.6358 -94.4494 297° West 383 441 21,200 -3,780 Descending Minneapolis Center
10:33AM 48.6811 -94.5769 298° West 358 412 17,300 -3,720 Descending Minneapolis Center
10:34AM 48.7203 -94.7039 295° West 343 395 13,600 -3,480 Descending Minneapolis Center
10:35AM 48.7350 -94.8378 280° West 326 375 10,200 -2,760 Descending Minneapolis Center
10:36AM 48.7522 -94.9822 280° West 304 350 7,900 -2,520 Descending Minneapolis Center
10:37AM 48.7650 -95.0878 280° West 296 341 5,000 -2,820 Descending Minneapolis Center
10:39AM 48.8801 -95.2574 287° West  Level Estimated
10:46AM 48.9333 -95.3333 307° West  Level FlightAware Approximate
10:47AM 48.9415 -95.3485 307° West  Level Estimated